Time;durP1;ratioP1;P1;durP2;ratioP2;P2;SDS_P1;SDS_P2;PMS_P1;PMS_P2;Temp;Humidity;BMP_temperature;BMP_pressure;BME280_temperature;BME280_humidity;BME280_pressure;Samples;Min_cycle;Max_cycle;Signal;HPM_P1;HPM_P2
2023/03/26 00:01:04;;;;;;;;;0.00;0.00;;;;;14.05;100.00;100491.44;5036247;28;45463;-76
2023/03/26 00:03:32;;;;;;;;;0.00;0.00;;;;;14.03;100.00;100498.53;5015074;28;45715;-76
2023/03/26 00:06:16;;;;;;;;;0.00;0.00;;;;;14.01;100.00;100492.34;5029317;28;45215;-76
2023/03/26 00:08:43;;;;;;;;;2.00;0.00;;;;;14.00;100.00;100483.50;5032427;28;45372;-76
2023/03/26 00:11:11;;;;;;;;;0.67;0.67;;;;;14.00;100.00;100474.66;5036138;28;45514;-76
2023/03/26 00:13:37;;;;;;;;;1.33;0.00;;;;;13.97;100.00;100478.25;5035659;28;47471;-76
2023/03/26 00:16:03;;;;;;;;;1.67;0.00;;;;;13.92;100.00;100471.22;5033617;28;45369;-75
2023/03/26 00:18:33;;;;;;;;;1.00;0.00;;;;;13.86;100.00;100461.53;5032557;28;45433;-77
2023/03/26 00:21:01;;;;;;;;;0.00;0.00;;;;;13.82;100.00;100462.44;5031707;28;45436;-76
2023/03/26 00:23:28;;;;;;;;;0.00;0.00;;;;;13.78;100.00;100469.53;5032741;28;47557;-77
2023/03/26 00:25:54;;;;;;;;;1.67;0.00;;;;;13.73;100.00;100451.88;5027663;28;45522;-77
2023/03/26 00:28:21;;;;;;;;;0.00;0.00;;;;;13.69;100.00;100440.44;5031218;28;45214;-76
2023/03/26 00:30:47;;;;;;;;;0.67;0.00;;;;;13.71;100.00;100432.47;5135668;22;46218;-79
2023/03/26 00:33:16;;;;;;;;;0.00;0.00;;;;;13.69;100.00;100428.91;5009984;28;46308;-76
2023/03/26 00:35:46;;;;;;;;;2.00;0.00;;;;;13.68;100.00;100424.50;5034986;28;45506;-76
2023/03/26 00:38:13;;;;;;;;;0.00;0.00;;;;;13.65;100.00;100425.44;5018883;28;45365;-74
2023/03/26 00:40:43;;;;;;;;;1.00;0.00;;;;;13.64;100.00;100418.38;5035173;28;45562;-74
2023/03/26 00:43:17;;;;;;;;;0.00;0.00;;;;;13.61;100.00;100413.94;5034876;28;47111;-75
2023/03/26 00:45:55;;;;;;;;;0.00;0.00;;;;;13.58;100.00;100400.72;5037957;28;45770;-76
2023/03/26 00:48:21;;;;;;;;;0.00;0.00;;;;;13.56;100.00;100375.09;5038929;28;45227;-76
2023/03/26 00:50:48;;;;;;;;;0.00;0.00;;;;;13.53;100.00;100381.31;5039329;28;45281;-76
2023/03/26 00:53:15;;;;;;;;;0.00;0.00;;;;;13.49;100.00;100368.09;5038506;28;47531;-76
2023/03/26 00:55:43;;;;;;;;;0.00;0.00;;;;;13.43;100.00;100365.50;5021042;28;45335;-75
2023/03/26 00:58:09;;;;;;;;;0.00;0.00;;;;;13.42;100.00;100345.16;5037949;28;45546;-75
2023/03/26 01:00:38;;;;;;;;;1.00;0.00;;;;;13.37;100.00;100355.81;5020941;28;45699;-76
2023/03/26 01:03:04;;;;;;;;;0.00;0.00;;;;;13.31;100.00;100339.94;5038371;28;45328;-76
2023/03/26 01:05:41;;;;;;;;;0.00;0.00;;;;;13.24;100.00;100356.78;5038388;28;45433;-75
2023/03/26 01:08:21;;;;;;;;;0.00;0.00;;;;;13.24;100.00;100343.53;5038857;28;45512;-75
2023/03/26 01:10:49;;;;;;;;;0.00;0.00;;;;;13.21;100.00;100331.19;5013234;28;45587;-76
2023/03/26 01:13:16;;;;;;;;;0.00;0.00;;;;;13.19;100.00;100311.72;5020698;28;46714;-75
2023/03/26 01:15:43;;;;;;;;;1.00;0.00;;;;;13.18;100.00;100303.78;5038524;28;45564;-75
2023/03/26 01:18:08;;;;;;;;;2.33;0.00;;;;;13.18;100.00;100293.19;5013445;28;45547;-76
2023/03/26 01:20:37;;;;;;;;;0.33;0.00;;;;;13.17;100.00;100289.66;5015443;28;45535;-76
2023/03/26 01:23:05;;;;;;;;;1.00;0.00;;;;;13.14;100.00;100284.38;5020085;28;47584;-75
2023/03/26 01:25:36;;;;;;;;;1.67;0.00;;;;;13.15;100.00;100280.81;5030642;28;45545;-75
2023/03/26 01:28:04;;;;;;;;;0.67;0.67;;;;;13.14;100.00;100283.50;5020536;28;45548;-76
2023/03/26 01:30:41;;;;;;;;;2.67;0.00;;;;;13.14;100.00;100284.38;5020093;28;45598;-76
2023/03/26 01:33:35;;;;;;;;;3.00;1.00;;;;;13.13;100.00;100266.72;5031423;28;47023;-76
2023/03/26 01:36:11;;;;;;;;;1.00;0.00;;;;;13.10;100.00;100249.06;5036272;28;45281;-76
2023/03/26 01:38:59;;;;;;;;;2.00;0.00;;;;;13.05;100.00;100240.28;5035517;28;45478;-75
2023/03/26 01:41:28;;;;;;;;;1.33;0.00;;;;;13.05;100.00;100234.09;5037005;28;45298;-75
2023/03/26 01:43:59;;;;;;;;;1.00;0.00;;;;;13.01;100.00;100227.94;5033288;28;46453;-76
2023/03/26 01:46:26;;;;;;;;;2.67;0.33;;;;;12.99;100.00;100207.63;5019588;28;45402;-76
2023/03/26 01:48:51;;;;;;;;;3.00;0.00;;;;;12.96;100.00;100187.34;5037198;28;45643;-76
2023/03/26 01:51:33;;;;;;;;;0.00;0.00;;;;;12.94;100.00;100173.22;5019611;28;65524;-77
2023/03/26 01:54:02;;;;;;;;;0.00;0.00;;;;;12.93;100.00;100163.53;5037083;28;47422;-76
2023/03/26 01:57:11;;;;;;;;;0.00;0.00;;;;;12.90;100.00;100146.78;5037677;28;45332;-76
2023/03/26 02:00:06;;;;;;;;;3.00;0.00;;;;;12.87;100.00;100154.75;5036603;28;45493;-76
2023/03/26 02:02:41;;;;;;;;;2.00;0.00;;;;;12.86;100.00;100135.34;5013918;28;47066;-76
2023/03/26 02:05:09;;;;;;;;;2.00;0.00;;;;;12.85;100.00;100128.28;5032401;28;46740;-76
2023/03/26 02:07:46;;;;;;;;;0.00;0.00;;;;;12.85;100.00;100113.25;5031638;28;46507;-76
2023/03/26 02:10:25;;;;;;;;;0.00;0.00;;;;;12.82;100.00;100107.09;5017907;28;45523;-75
2023/03/26 02:12:51;;;;;;;;;0.00;0.00;;;;;12.75;100.00;100095.69;5020307;28;45504;-75
2023/03/26 02:15:16;;;;;;;;;1.00;0.00;;;;;12.69;100.00;100087.81;5037047;28;47419;-77
2023/03/26 02:17:41;;;;;;;;;1.00;0.00;;;;;12.69;100.00;100076.34;5029961;28;66633;-76
2023/03/26 02:20:11;;;;;;;;;0.67;0.67;;;;;12.65;100.00;100075.50;5030999;28;63100;-75
2023/03/26 02:22:40;;;;;;;;;0.00;0.00;;;;;12.63;100.00;100056.09;5017189;28;45518;-76
2023/03/26 02:25:09;;;;;;;;;1.00;0.00;;;;;12.60;100.00;100056.13;5037737;28;46570;-75
2023/03/26 02:27:36;;;;;;;;;2.00;0.67;;;;;12.55;100.00;100032.31;5037644;28;45513;-77
2023/03/26 02:30:03;;;;;;;;;0.00;0.00;;;;;12.56;100.00;100026.13;5031448;28;45542;-76
2023/03/26 02:32:28;;;;;;;;;0.00;0.00;;;;;12.57;100.00;100014.66;5014085;28;46568;-76
2023/03/26 02:34:54;;;;;;;;;2.00;1.00;;;;;12.55;100.00;100008.50;5036011;28;69485;-76
2023/03/26 02:37:19;;;;;;;;;4.00;0.00;;;;;12.54;100.00;100019.97;5014174;28;69080;-76
2023/03/26 02:39:45;;;;;;;;;1.00;1.00;;;;;12.52;100.00;100016.47;5017028;28;45875;-76
2023/03/26 02:42:10;;;;;;;;;0.00;0.00;;;;;12.55;100.00;100003.19;5037269;28;45506;-76
2023/03/26 02:44:39;;;;;;;;;1.00;1.00;;;;;12.58;100.00;100012.88;5015702;28;68849;-75
2023/03/26 02:47:04;;;;;;;;;1.67;0.00;;;;;12.55;100.00;99989.94;5033199;28;47168;-77
2023/03/26 02:49:29;;;;;;;;;1.00;1.00;;;;;12.56;100.00;99983.75;5034857;28;45659;-76
2023/03/26 02:51:55;;;;;;;;;0.00;0.00;;;;;12.58;100.00;99971.41;5033291;28;59011;-76
2023/03/26 02:54:21;;;;;;;;;0.67;0.33;;;;;12.58;100.00;99963.44;5013844;28;47839;-76
2023/03/26 02:56:47;;;;;;;;;0.00;0.00;;;;;12.59;100.00;99940.50;5028978;28;45352;-76
2023/03/26 02:59:13;;;;;;;;;0.00;0.00;;;;;12.58;100.00;99933.44;5036546;28;62111;-78
2023/03/26 03:01:41;;;;;;;;;2.00;0.00;;;;;12.54;100.00;99924.66;5034702;28;45513;-75
2023/03/26 03:04:10;;;;;;;;;0.33;0.33;;;;;12.55;100.00;99912.28;5036958;28;45770;-77
2023/03/26 03:06:37;;;;;;;;;2.00;0.00;;;;;12.58;100.00;99907.84;5036798;28;45365;-76
2023/03/26 03:09:04;;;;;;;;;2.00;0.00;;;;;12.56;100.00;99888.41;5019409;28;45333;-76
2023/03/26 03:11:29;;;;;;;;;1.00;1.00;;;;;12.59;100.00;99896.34;5032730;28;45324;-77
2023/03/26 03:13:55;;;;;;;;;5.00;1.00;;;;;12.53;100.00;99875.25;5035605;28;45658;-76
2023/03/26 03:16:20;;;;;;;;;0.67;0.00;;;;;12.55;100.00;99870.78;5031315;28;62819;-76
2023/03/26 03:18:52;;;;;;;;;1.67;1.00;;;;;12.56;100.00;99883.13;5036211;28;45493;-76
2023/03/26 03:21:18;;;;;;;;;0.00;0.00;;;;;12.56;100.00;99851.34;5029188;28;45466;-77
2023/03/26 03:23:44;;;;;;;;;0.00;0.00;;;;;12.58;100.00;99884.00;5031141;28;46307;-77
2023/03/26 03:26:13;;;;;;;;;0.00;0.00;;;;;12.59;100.00;99888.41;5035652;28;55596;-76
2023/03/26 03:28:38;;;;;;;;;2.00;0.00;;;;;12.60;100.00;99881.31;5028817;28;45421;-76
2023/03/26 03:31:04;;;;;;;;;0.67;0.00;;;;;12.62;100.00;99886.59;5033558;28;45466;-76
2023/03/26 03:33:29;;;;;;;;;0.00;0.00;;;;;12.62;100.00;99874.22;5034128;28;46398;-75
2023/03/26 03:35:54;;;;;;;;;0.00;0.00;;;;;12.61;100.00;99875.13;5024568;28;67072;-76
2023/03/26 03:38:20;;;;;;;;;0.00;0.00;;;;;12.62;100.00;99857.47;5034395;28;45585;-77
2023/03/26 03:40:45;;;;;;;;;0.00;0.00;;;;;12.63;100.00;99886.59;5028855;28;45610;-77
2023/03/26 03:43:10;;;;;;;;;2.00;0.00;;;;;12.58;100.00;99860.16;5035323;28;58166;-76
2023/03/26 03:45:36;;;;;;;;;2.00;0.00;;;;;12.54;100.00;99879.63;5032969;28;61581;-75
2023/03/26 03:48:02;;;;;;;;;2.00;0.00;;;;;12.48;100.00;99877.06;5039193;28;54954;-75
2023/03/26 03:50:27;;;;;;;;;0.00;0.00;;;;;12.43;100.00;99865.66;5035284;28;45164;-75
2023/03/26 03:52:52;;;;;;;;;0.00;0.00;;;;;12.39;100.00;99876.28;5034938;28;46424;-76
2023/03/26 03:55:18;;;;;;;;;2.00;0.00;;;;;12.32;100.00;99867.56;5028338;28;49073;-75
2023/03/26 03:57:44;;;;;;;;;0.00;0.00;;;;;12.25;100.00;99856.16;5016931;28;62824;-76
2023/03/26 04:00:13;;;;;;;;;0.00;0.00;;;;;12.19;100.00;99850.91;5031770;28;45338;-75
2023/03/26 04:02:41;;;;;;;;;0.00;0.00;;;;;12.12;100.00;99862.47;5034323;28;47325;-76
2023/03/26 04:05:07;;;;;;;;;0.00;0.00;;;;;12.10;100.00;99876.63;5026967;28;45235;-76
2023/03/26 04:07:33;;;;;;;;;0.00;0.00;;;;;12.06;100.00;99875.78;5029302;28;45414;-77
2023/03/26 04:09:59;;;;;;;;;0.00;0.00;;;;;12.07;100.00;99888.97;5034660;28;57659;-77
2023/03/26 04:12:28;;;;;;;;;0.00;0.00;;;;;12.10;100.00;99884.56;5035911;28;47427;-75
2023/03/26 04:14:54;;;;;;;;;0.00;0.00;;;;;12.10;100.00;99893.38;5035440;28;45497;-75
2023/03/26 04:17:22;;;;;;;;;0.00;0.00;;;;;12.09;100.00;99902.22;5037087;28;45186;-75
2023/03/26 04:19:49;;;;;;;;;0.00;0.00;;;;;12.11;100.00;99887.19;5042035;28;45347;-76
2023/03/26 04:22:17;;;;;;;;;0.00;0.00;;;;;12.07;100.00;99888.09;5039077;28;47304;-75
2023/03/26 04:24:43;;;;;;;;;0.00;0.00;;;;;12.09;100.00;99885.44;5018560;28;45396;-75
2023/03/26 04:27:11;;;;;;;;;0.00;0.00;;;;;12.08;100.00;99908.38;5042309;28;45471;-76
2023/03/26 04:29:43;;;;;;;;;0.00;0.00;;;;;12.04;100.00;99902.25;5038047;28;45501;-76
2023/03/26 04:32:18;;;;;;;;;0.00;0.00;;;;;12.04;100.00;99902.25;5039196;28;46598;-76
2023/03/26 04:34:44;;;;;;;;;0.00;0.00;;;;;12.06;100.00;99910.19;5024706;28;45481;-77
2023/03/26 04:37:17;;;;;;;;;0.00;0.00;;;;;12.01;100.00;99927.88;5041451;28;45433;-75
2023/03/26 04:39:43;;;;;;;;;1.00;0.00;;;;;11.96;100.00;99919.09;5018746;28;45404;-75
2023/03/26 04:42:10;;;;;;;;;0.00;0.00;;;;;11.89;100.00;99927.97;5040497;28;46746;-76
2023/03/26 04:44:35;;;;;;;;;0.00;0.00;;;;;11.89;100.00;99936.78;5036806;28;69581;-76
2023/03/26 04:47:00;;;;;;;;;0.00;0.00;;;;;11.87;100.00;99938.56;5038789;28;63412;-77
2023/03/26 04:49:26;;;;;;;;;0.00;0.00;;;;;11.86;100.00;99941.22;5044923;28;45442;-76
2023/03/26 04:51:51;;;;;;;;;0.00;0.00;;;;;11.87;100.00;99930.63;5040938;28;69770;-76
2023/03/26 04:54:19;;;;;;;;;1.00;0.00;;;;;11.88;100.00;99939.44;5023638;28;67574;-76
2023/03/26 04:57:02;;;;;;;;;0.00;0.00;;;;;11.84;100.00;99928.03;5040816;28;45462;-76
2023/03/26 04:59:33;;;;;;;;;0.00;0.00;;;;;11.87;100.00;99946.50;5024447;28;45559;-75
2023/03/26 05:01:59;;;;;;;;;0.00;0.00;;;;;11.88;100.00;99944.72;5038009;28;46004;-75
2023/03/26 05:04:25;;;;;;;;;0.00;0.00;;;;;11.89;100.00;99946.50;5042445;28;45269;-76
2023/03/26 05:06:51;;;;;;;;;0.00;0.00;;;;;11.87;100.00;99945.63;5041747;28;45347;-75
2023/03/26 05:09:18;;;;;;;;;0.00;0.00;;;;;11.84;100.00;99945.66;5042290;28;45306;-76
2023/03/26 05:11:43;;;;;;;;;0.00;0.00;;;;;11.77;100.00;99952.72;5041862;28;46534;-76
2023/03/26 05:14:08;;;;;;;;;1.00;0.00;;;;;11.73;100.00;99943.06;5039633;28;45336;-75
2023/03/26 05:16:35;;;;;;;;;0.00;0.00;;;;;11.73;100.00;99972.16;5022686;28;45469;-76
2023/03/26 05:19:00;;;;;;;;;0.00;0.00;;;;;11.76;100.00;99953.59;5037731;28;45398;-76
2023/03/26 05:21:25;;;;;;;;;0.00;0.00;;;;;11.78;100.00;99962.44;5033398;28;46625;-76
2023/03/26 05:23:51;;;;;;;;;1.00;0.00;;;;;11.77;100.00;99968.56;5040683;28;68184;-76
2023/03/26 05:26:16;;;;;;;;;0.00;0.00;;;;;11.76;100.00;99972.13;5039161;28;62573;-76
2023/03/26 05:28:42;;;;;;;;;0.00;0.00;;;;;11.78;100.00;99965.06;5040872;28;45562;-76
2023/03/26 05:31:07;;;;;;;;;0.00;0.00;;;;;11.78;100.00;99971.22;5034431;28;47202;-76
2023/03/26 05:33:33;;;;;;;;;0.00;0.00;;;;;11.76;100.00;99965.06;5019643;28;45305;-76
2023/03/26 05:36:14;;;;;;;;;0.00;0.00;;;;;11.71;100.00;99971.28;5031021;28;56445;-76
2023/03/26 05:38:40;;;;;;;;;0.00;0.00;;;;;11.66;100.00;99975.72;5037623;28;45429;-75
2023/03/26 05:41:08;;;;;;;;;0.00;0.00;;;;;11.66;100.00;99975.72;5038213;28;47745;-75
2023/03/26 05:43:33;;;;;;;;;1.00;0.00;;;;;11.63;100.00;99979.28;5038258;28;45341;-76
2023/03/26 05:45:59;;;;;;;;;1.00;0.00;;;;;11.61;100.00;99980.16;5035265;28;45504;-76
2023/03/26 05:48:25;;;;;;;;;0.00;0.00;;;;;11.53;100.00;99969.66;5043223;28;45257;-76
2023/03/26 05:50:52;;;;;;;;;0.00;0.00;;;;;11.57;100.00;99970.50;5032709;28;45679;-76
2023/03/26 05:53:18;;;;;;;;;0.00;0.00;;;;;11.55;100.00;99965.22;5037721;28;45404;-76
2023/03/26 05:55:44;;;;;;;;;0.00;0.00;;;;;11.61;100.00;99977.50;5030036;28;45419;-77
2023/03/26 05:58:11;;;;;;;;;0.33;0.00;;;;;11.62;100.00;99984.59;5038233;28;45421;-75
2023/03/26 06:00:37;;;;;;;;;0.33;0.00;;;;;11.58;100.00;99966.97;5032792;28;45540;-77
2023/03/26 06:03:02;;;;;;;;;1.33;0.00;;;;;11.53;100.00;99949.38;5028763;28;45337;-75
2023/03/26 06:05:31;;;;;;;;;0.00;0.00;;;;;11.49;100.00;99974.06;5035331;28;45372;-76
2023/03/26 06:07:56;;;;;;;;;0.33;0.00;;;;;11.47;100.00;99964.41;5013593;28;45274;-77
2023/03/26 06:10:22;;;;;;;;;0.00;0.00;;;;;11.45;100.00;99953.84;5037216;28;70368;-76
2023/03/26 06:12:48;;;;;;;;;2.00;0.00;;;;;11.46;100.00;99967.94;5031945;28;45734;-75
2023/03/26 06:15:14;;;;;;;;;1.00;0.00;;;;;11.44;100.00;99959.13;5031158;28;45480;-75
2023/03/26 06:17:39;;;;;;;;;1.00;0.00;;;;;11.42;100.00;99960.91;5031778;28;45391;-76
2023/03/26 06:20:06;;;;;;;;;0.00;0.00;;;;;11.43;100.00;99966.19;5033071;28;46520;-76
2023/03/26 06:22:31;;;;;;;;;0.00;0.00;;;;;11.44;100.00;99967.94;5034009;28;45518;-76
2023/03/26 06:24:57;;;;;;;;;0.00;0.00;;;;;11.46;100.00;99973.22;5035950;28;45341;-77
2023/03/26 06:27:22;;;;;;;;;0.00;0.00;;;;;11.48;100.00;99974.09;5036982;28;64023;-76
2023/03/26 06:29:47;;;;;;;;;0.00;0.00;;;;;11.50;100.00;99973.22;5034238;28;65221;-76
2023/03/26 06:32:13;;;;;;;;;0.00;0.00;;;;;11.52;100.00;99987.28;5036804;28;45392;-76
2023/03/26 06:34:39;;;;;;;;;0.00;0.00;;;;;11.55;100.00;99981.94;5014466;28;45509;-77
2023/03/26 06:37:04;;;;;;;;;0.00;0.00;;;;;11.59;100.00;99985.47;5035458;28;45520;-76
2023/03/26 06:39:29;;;;;;;;;0.00;0.00;;;;;11.62;100.00;99974.88;5036741;28;54361;-76
2023/03/26 06:41:54;;;;;;;;;0.00;0.00;;;;;11.62;100.00;99988.09;5036389;28;64836;-76
2023/03/26 06:44:20;;;;;;;;;1.00;0.00;;;;;11.66;100.00;99994.22;5025435;28;62916;-76
2023/03/26 06:46:45;;;;;;;;;0.00;0.00;;;;;11.68;100.00;99992.47;5037731;28;45376;-76
2023/03/26 06:49:11;;;;;;;;;1.33;0.00;;;;;11.71;100.00;99992.44;5041452;28;61251;-77
2023/03/26 06:51:39;;;;;;;;;0.67;0.00;;;;;11.73;100.00;99988.03;5027854;28;66380;-75
2023/03/26 06:54:04;;;;;;;;;1.00;0.00;;;;;11.79;100.00;100006.50;5030844;28;45522;-77
2023/03/26 06:56:30;;;;;;;;;0.00;0.00;;;;;11.83;100.00;100000.34;5036427;28;45694;-76
2023/03/26 06:58:55;;;;;;;;;0.00;0.00;;;;;11.86;100.00;100008.22;5031831;28;69101;-76
2023/03/26 07:01:21;;;;;;;;;0.00;0.00;;;;;11.90;100.00;100001.16;5036796;28;45391;-75
2023/03/26 07:03:46;;;;;;;;;1.67;0.00;;;;;11.97;100.00;100000.19;5036608;28;45473;-77
2023/03/26 07:06:11;;;;;;;;;3.00;0.00;;;;;12.01;100.00;100015.16;5037513;28;45665;-76
2023/03/26 07:08:37;;;;;;;;;0.00;0.00;;;;;12.02;100.00;100009.84;5014628;28;47571;-75
2023/03/26 07:11:02;;;;;;;;;4.00;0.00;;;;;12.07;100.00;99999.25;5028415;28;67524;-76
2023/03/26 07:13:27;;;;;;;;;0.00;0.00;;;;;12.10;100.00;100014.22;5033894;28;45290;-76
2023/03/26 07:15:53;;;;;;;;;0.00;0.00;;;;;12.13;100.00;100014.19;5034826;28;61505;-76
2023/03/26 07:18:18;;;;;;;;;0.00;0.00;;;;;12.15;100.00;100021.25;5029977;28;47929;-75
2023/03/26 07:20:44;;;;;;;;;1.00;0.00;;;;;12.17;100.00;100032.69;5031465;28;66460;-77
2023/03/26 07:23:11;;;;;;;;;3.00;0.00;;;;;12.20;100.00;100023.84;5032536;28;45554;-76
2023/03/26 07:25:37;;;;;;;;;0.00;0.00;;;;;12.22;100.00;100032.66;5023590;28;45230;-75
2023/03/26 07:28:27;;;;;;;;;2.00;0.00;;;;;12.19;100.00;100030.88;5032053;28;46531;-76
2023/03/26 07:31:21;;;;;;;;;4.00;0.00;;;;;12.15;100.00;100029.19;5028549;28;45542;-76
2023/03/26 07:34:00;;;;;;;;;2.67;0.00;;;;;12.12;100.00;100039.78;5034189;28;45376;-76
2023/03/26 07:36:45;;;;;;;;;1.67;0.00;;;;;12.09;100.00;100042.47;5018964;28;45258;-76
2023/03/26 07:39:48;;;;;;;;;0.67;0.00;;;;;12.11;100.00;100045.09;5036289;28;46745;-75
2023/03/26 07:42:31;;;;;;;;;1.33;0.00;;;;;12.13;100.00;100041.53;5017665;28;45499;-76
2023/03/26 07:45:20;;;;;;;;;4.00;2.33;;;;;12.20;100.00;100052.97;5029988;28;45514;-78
2023/03/26 07:47:46;;;;;;;;;0.00;0.00;;;;;12.28;100.00;100048.47;5028692;28;45506;-79
2023/03/26 07:50:20;;;;;;;;;0.00;0.00;;;;;12.36;100.00;100054.59;5017213;28;46055;-78
2023/03/26 07:52:46;;;;;;;;;2.00;0.00;;;;;12.47;100.00;100059.78;5028141;28;45597;-77
2023/03/26 07:55:13;;;;;;;;;1.00;0.00;;;;;12.49;100.00;100056.22;5029291;28;45621;-79
2023/03/26 07:58:31;;;;;;;;;0.00;0.00;;;;;12.57;100.00;100050.88;5015713;28;46289;-77
2023/03/26 08:01:11;;;;;;;;;0.00;0.00;;;;;12.65;100.00;100061.38;4979461;28;47006;-78
2023/03/26 08:03:52;;;;;;;;;0.00;0.00;;;;;12.76;100.00;100070.09;5017535;28;45491;-78
2023/03/26 08:06:32;;;;;;;;;0.00;0.00;;;;;12.81;100.00;100066.50;5017928;28;45541;-80
2023/03/26 08:09:27;;;;;;;;;0.33;0.33;;;;;12.90;100.00;100060.22;5034542;28;45320;-79
2023/03/26 08:11:58;;;;;;;;;0.67;0.00;;;;;12.95;100.00;100063.72;5015765;28;46691;-77
2023/03/26 08:14:50;;;;;;;;;0.00;0.00;;;;;13.04;100.00;100071.53;5010473;28;45698;-77
2023/03/26 08:17:36;;;;;;;;;2.00;0.00;;;;;13.16;100.00;100064.38;5029848;28;45526;-77
2023/03/26 08:20:48;;;;;;;;;2.33;0.00;;;;;13.24;100.00;100068.69;5010867;28;45584;-75
2023/03/26 08:24:12;;;;;;;;;1.00;0.00;;;;;13.35;100.00;100068.56;5020279;28;46537;-75
2023/03/26 08:26:56;;;;;;;;;2.00;1.00;;;;;13.45;100.00;100080.81;4928940;28;45630;-77
2023/03/26 08:29:33;;;;;;;;;2.67;0.33;;;;;13.52;100.00;100073.63;5030008;28;45503;-78
2023/03/26 08:31:59;;;;;;;;;0.00;0.00;;;;;13.57;100.00;100067.38;5034508;28;45517;-79
2023/03/26 08:34:24;;;;;;;;;0.00;0.00;;;;;13.59;100.00;100064.72;5035499;28;45663;-78
2023/03/26 08:36:49;;;;;;;;;3.00;0.00;;;;;13.65;100.00;100063.75;5015285;28;45473;-78
2023/03/26 08:39:15;;;;;;;;;2.00;0.00;;;;;13.67;100.00;100076.09;5017226;28;45707;-78
2023/03/26 08:41:53;;;;;;;;;0.33;0.00;;;;;13.66;100.00;100066.38;5035175;28;45291;-75
2023/03/26 08:44:47;;;;;;;;;3.00;0.00;;;;;13.68;100.00;100067.22;5030637;28;46252;-78
2023/03/26 08:47:22;;;;;;;;;3.67;0.67;;;;;13.70;100.00;100065.44;5041810;28;45452;-85
2023/03/26 08:50:05;;;;;;;;;0.00;0.00;;;;;13.72;100.00;100062.75;5019144;28;45425;-76
2023/03/26 08:52:45;;;;;;;;;1.00;1.00;;;;;13.68;100.00;100074.31;5016905;28;45950;-77
2023/03/26 08:55:33;;;;;;;;;2.33;0.00;;;;;13.65;100.00;100079.69;5035072;28;46642;-76
2023/03/26 08:58:20;;;;;;;;;1.33;0.00;;;;;13.58;100.00;100095.69;5034923;28;45230;-73
2023/03/26 09:00:48;;;;;;;;;1.00;1.00;;;;;13.55;100.00;100093.06;5031207;28;45581;-77
2023/03/26 09:03:34;;;;;;;;;1.00;0.00;;;;;13.51;100.00;100101.06;5024015;28;46958;-78
2023/03/26 09:06:40;;;;;;;;;0.00;0.00;;;;;13.49;100.00;100082.53;5039821;28;46699;-75
2023/03/26 09:09:29;;;;;;;;;2.33;0.00;;;;;13.47;100.00;100094.03;5033442;28;45825;-77
2023/03/26 09:12:13;;;;;;;;;0.00;0.00;;;;;13.46;100.00;100113.50;5027338;28;45564;-76
2023/03/26 09:15:19;;;;;;;;;2.00;0.00;;;;;13.43;100.00;100098.53;5035017;28;45568;-77
2023/03/26 09:18:04;;;;;;;;;1.00;0.00;;;;;13.45;100.00;100107.31;5016158;28;46652;-74
2023/03/26 09:20:47;;;;;;;;;1.00;0.00;;;;;13.44;100.00;100129.44;5030298;28;45526;-78
2023/03/26 09:23:31;;;;;;;;;0.00;0.00;;;;;13.43;100.00;100109.13;5033987;28;45594;-81
2023/03/26 09:26:26;;;;;;;;;0.33;0.00;;;;;13.39;100.00;100112.72;5035764;28;45562;-81
2023/03/26 09:29:03;;;;;;;;;0.00;0.00;;;;;13.38;100.00;100110.97;5034462;28;47067;-78
2023/03/26 09:31:50;;;;;;;;;0.00;0.00;;;;;13.41;100.00;100128.59;5033035;28;45525;-83
2023/03/26 09:34:31;;;;;;;;;1.00;0.00;;;;;13.41;100.00;100128.59;5032980;28;45513;-79
2023/03/26 09:37:06;;;;;;;;;1.67;0.00;;;;;13.42;100.00;100128.56;5016722;28;45504;-86
2023/03/26 09:40:10;;;;;;;;;1.00;0.00;;;;;13.41;100.00;100121.50;5033180;28;47400;-77
2023/03/26 09:42:53;;;;;;;;;3.00;0.00;;;;;13.41;100.00;100129.47;5019178;28;46484;-79
2023/03/26 09:45:29;;;;;;;;;0.00;0.00;;;;;13.39;100.00;100127.75;5025980;28;45746;-77
2023/03/26 09:48:14;;;;;;;;;0.00;0.00;;;;;13.35;100.00;100124.25;5029677;28;45721;-82
2023/03/26 09:51:24;;;;;;;;;0.00;0.00;;;;;13.33;100.00;100131.34;5030309;28;46483;-79
2023/03/26 09:54:07;;;;;;;;;0.00;0.00;;;;;13.26;100.00;100125.25;4938124;28;45960;-79
2023/03/26 09:57:06;;;;;;;;;2.00;0.00;;;;;13.22;100.00;100128.81;5014062;28;45479;-78
2023/03/26 09:59:50;;;;;;;;;1.67;0.67;;;;;13.25;100.00;100130.53;5021049;28;45830;-78
2023/03/26 10:02:21;;;;;;;;;1.00;1.00;;;;;13.27;100.00;100139.38;5022598;28;47476;-78
2023/03/26 10:05:04;;;;;;;;;1.00;0.00;;;;;13.28;100.00;100141.13;5029692;28;45498;-79
2023/03/26 10:07:44;;;;;;;;;1.67;1.00;;;;;13.33;100.00;100147.25;5014636;28;45783;-76
2023/03/26 10:10:51;;;;;;;;;0.00;0.00;;;;;13.32;100.00;100148.16;5027072;28;45470;-78
2023/03/26 10:13:40;;;;;;;;;0.67;0.00;;;;;13.30;100.00;100155.22;5026375;28;46364;-76
2023/03/26 10:16:25;;;;;;;;;0.67;0.00;;;;;13.31;100.00;100168.47;5026538;28;45498;-76
2023/03/26 10:19:15;;;;;;;;;0.00;0.00;;;;;13.34;100.00;100172.88;5010075;28;45471;-78
2023/03/26 10:22:02;;;;;;;;;0.00;0.00;;;;;13.37;100.00;100170.19;5025886;28;45509;-78
2023/03/26 10:24:33;;;;;;;;;0.00;0.00;;;;;13.45;100.00;100170.97;5024684;28;47009;-78
2023/03/26 10:27:11;;;;;;;;;0.00;0.00;;;;;13.50;100.00;100166.50;5030807;28;45659;-79
2023/03/26 10:30:03;;;;;;;;;0.00;0.00;;;;;13.54;100.00;100178.84;5013071;28;45376;-80
2023/03/26 10:33:03;;;;;;;;;1.00;0.00;;;;;13.65;100.00;100167.22;5007005;28;45615;-80
2023/03/26 10:35:44;;;;;;;;;0.00;0.00;;;;;13.70;100.00;100165.38;5023474;28;47518;-79
2023/03/26 10:38:19;;;;;;;;;0.00;0.00;;;;;13.87;100.00;100166.03;5010870;28;45647;-80
2023/03/26 10:41:15;;;;;;;;;0.00;0.00;;;;;14.02;100.00;100173.81;5025758;28;45474;-76
2023/03/26 10:44:25;;;;;;;;;0.00;0.00;;;;;14.10;100.00;100166.59;5008024;28;45510;-79
2023/03/26 10:47:17;;;;;;;;;1.00;0.00;;;;;14.17;100.00;100175.38;4921224;28;45565;-79
2023/03/26 10:50:04;;;;;;;;;0.00;0.00;;;;;14.29;100.00;100174.31;4990208;28;45877;-80
2023/03/26 10:52:34;;;;;;;;;1.67;0.00;;;;;14.43;100.00;100177.63;5028916;28;45600;-80
2023/03/26 10:55:13;;;;;;;;;0.00;0.00;;;;;14.64;100.00;100176.44;5011502;28;46100;-80
2023/03/26 10:57:52;;;;;;;;;1.33;0.00;;;;;14.76;100.00;100176.25;5028652;28;45577;-79
2023/03/26 11:00:26;;;;;;;;;0.00;0.00;;;;;14.79;100.00;100170.00;5013297;28;45489;-80
2023/03/26 11:03:07;;;;;;;;;0.67;0.00;;;;;14.79;100.00;100172.66;5008612;28;45984;-82
2023/03/26 11:05:50;;;;;;;;;0.00;0.00;;;;;14.76;100.00;100172.72;5028276;28;45638;-80
2023/03/26 11:08:42;;;;;;;;;0.00;0.00;;;;;14.73;100.00;100170.97;5028187;28;45608;-80
2023/03/26 11:11:20;;;;;;;;;1.00;0.00;;;;;14.78;100.00;100166.47;4991974;28;45865;-79
2023/03/26 11:14:15;;;;;;;;;3.00;0.00;;;;;14.94;100.00;100169.75;5013441;28;45575;-80
2023/03/26 11:16:51;;;;;;;;;0.00;0.00;;;;;15.12;100.00;100160.56;5024824;28;45438;-75
2023/03/26 11:19:34;;;;;;;;;1.00;0.00;;;;;15.12;100.00;100166.75;5009402;28;47500;-85
2023/03/26 11:22:24;;;;;;;;;2.00;0.00;;;;;15.05;100.00;100170.44;5009029;28;45599;-80
2023/03/26 11:25:14;;;;;;;;;2.00;2.00;;;;;14.95;100.00;100176.81;5028239;28;45469;-79
2023/03/26 11:27:43;;;;;;;;;214.50;179.25;;;;;14.90;100.00;100176.88;5007492;28;47413;-77
2023/03/26 11:30:40;;;;;;;;;18.50;16.50;;;;;14.88;100.00;100164.53;5008129;28;47961;-75
2023/03/26 11:33:10;;;;;;;;;40.75;31.25;;;;;14.82;100.00;100165.53;5005466;28;46803;-76
2023/03/26 11:35:45;;;;;;;;;29.75;27.25;;;;;14.87;100.00;100162.78;5019473;28;45632;-82
2023/03/26 11:38:18;;;;;;;;;382.25;312.75;;;;;15.08;100.00;100156.22;5008765;28;45593;-82
2023/03/26 11:40:49;;;;;;;;;250.00;209.25;;;;;15.40;100.00;100155.63;5007859;28;46593;-83
2023/03/26 11:43:16;;;;;;;;;44.20;36.60;;;;;15.69;100.00;100155.03;5009776;28;45905;-79
2023/03/26 11:45:44;;;;;;;;;605.60;477.00;;;;;15.87;100.00;100160.00;5008155;28;45918;-84
2023/03/26 11:48:17;;;;;;;;;42.00;36.50;;;;;15.98;100.00;100157.97;5010546;28;45504;-85